Kersti — 9HA4127 — position and weather

sailwx.info

Track history (hours):
 
Tides and Currents Weather Stations Pressure Air Temp Water Temp Dewpoint Dewpoint Depression Visibility Wind Speed Wind Dir Waves Ship Positions

Kersti

Last reported at 2017-Dec-10 10:09 UTC. Time now 2017-Dec-13 15:10 UTC.
Position N 59°32' E 026°33'.

Length 107 m; draft 3.9 m.

Type: Cargo ship. MMSI: 249145000.

Date/timePositionNaut miles runAvg speedWind from/ knotsBaromVisibWave heightAir tempDewpointWater temp
2017-Dec-10 10:09N 59°32' E 026°33'0 0.1
2017-Dec-10 09:57N 59°32' E 026°33'2 4.3
2017-Dec-10 09:26N 59°34' E 026°32'4 9.4
2017-Dec-10 09:00N 59°38' E 026°29'5 9.5
2017-Dec-10 08:31N 59°41' E 026°24'510.6
2017-Dec-10 08:00N 59°44' E 026°15'2610.4
2017-Dec-10 05:31N 59°44' E 025°24'210.5
2017-Dec-10 05:22N 59°44' E 025°21'410.3
2017-Dec-10 05:01N 59°44' E 025°13'5 9.9
2017-Dec-10 04:31N 59°44' E 025°03'510.8
2017-Dec-10 04:00N 59°44' E 024°53'5 9.3
2017-Dec-10 03:31N 59°44' E 024°43'5 9.2
2017-Dec-10 03:00N 59°43' E 024°35'510.8
2017-Dec-10 02:30N 59°40' E 024°25'4 8.0
2017-Dec-10 02:00N 59°38' E 024°19'5 9.7
2017-Dec-10 01:30N 59°36' E 024°10'  
2017-Dec-07 05:51N 55°39' E 018°59'5 7.8
2017-Dec-07 05:12N 55°35' E 019°01'310.1
2017-Dec-07 04:53N 55°32' E 018°60'3 8.1
2017-Dec-07 04:29N 55°28' E 019°01'7 8.6
2017-Dec-07 03:40N 55°21' E 019°03'4 8.9
2017-Dec-07 03:14N 55°18' E 019°05'2 8.6
2017-Dec-07 02:57N 55°16' E 019°07'4 8.9
2017-Dec-07 02:30N 55°12' E 019°09'5 9.2
2017-Dec-07 02:00N 55°07' E 019°11'5 9.0
2017-Dec-07 01:30N 55°03' E 019°13'4 8.9
2017-Dec-07 01:00N 54°59' E 019°15'5 9.2
2017-Dec-07 00:30N 54°54' E 019°18'5 9.1
2017-Dec-07 00:00N 54°50' E 019°20'4 8.6
2017-Dec-06 23:30N 54°48' E 019°26'4 8.9
2017-Dec-06 23:00N 54°46' E 019°33'4 8.9
2017-Dec-06 22:30N 54°44' E 019°40'  
2017-Dec-03 23:43N 54°39' E 019°48'0 0.0
2017-Dec-03 20:34N 54°39' E 019°47'0 1.2
2017-Dec-03 20:19N 54°39' E 019°47'3 7.8
2017-Dec-03 19:59N 54°41' E 019°45'5 8.9
2017-Dec-03 19:28N 54°44' E 019°38'4 9.1
2017-Dec-03 19:00N 54°45' E 019°31'5 9.3
2017-Dec-03 18:30N 54°47' E 019°23'5 9.3
2017-Dec-03 18:00N 54°49' E 019°16'5 9.2
2017-Dec-03 17:31N 54°50' E 019°08'5 9.4
2017-Dec-03 17:01N 54°52' E 019°01'5 9.5
2017-Dec-03 16:31N 54°53' E 018°53'5 9.7
2017-Dec-03 16:01N 54°55' E 018°45'5 9.9
2017-Dec-03 15:30N 54°57' E 018°37'5 9.6
2017-Dec-03 15:00N 54°58' E 018°28'5 9.8
2017-Dec-03 14:28N 54°57' E 018°19'5 9.9
2017-Dec-03 14:00N 54°56' E 018°11'101 9.7
2017-Dec-03 03:37N 54°51' E 015°16'2 9.6
2017-Dec-03 03:26N 54°51' E 015°13'4 9.8
2017-Dec-03 03:01N 54°52' E 015°06'5 9.6
2017-Dec-03 02:31N 54°52' E 014°58'5 9.5
2017-Dec-03 02:01N 54°53' E 014°49'5 9.5
2017-Dec-03 01:31N 54°54' E 014°41'5 9.6
2017-Dec-03 01:01N 54°55' E 014°33'5 9.6
2017-Dec-03 00:31N 54°56' E 014°25'5 9.7
2017-Dec-02 23:57N 54°57' E 014°16'7 9.6
2017-Dec-02 23:15N 54°59' E 014°05'7 9.7
2017-Dec-02 22:33N 55°01' E 013°53'310.0
2017-Dec-02 22:14N 55°02' E 013°48'310.0
2017-Dec-02 21:57N 55°03' E 013°44'21 9.8
2017-Dec-02 19:46N 55°11' E 013°09'3 9.3
2017-Dec-02 19:30N 55°12' E 013°05'5 9.7
2017-Dec-02 19:00N 55°14' E 012°57'5 9.8
2017-Dec-02 18:30N 55°15' E 012°49'5 9.9
2017-Dec-02 18:01N 55°18' E 012°41'4 7.7
2017-Dec-02 17:30N 55°21' E 012°39'5 9.4
2017-Dec-02 17:00N 55°26' E 012°40'5 9.3
2017-Dec-02 16:30N 55°30' E 012°42'4 8.6
2017-Dec-02 16:01N 55°35' E 012°42'4 8.3
2017-Dec-02 15:31N 55°39' E 012°41'5 9.2
2017-Dec-02 15:01N 55°43' E 012°41'5 9.3
2017-Dec-02 14:31N 55°48' E 012°41'5 9.2
2017-Dec-02 14:01N 55°52' E 012°39'5 9.2
2017-Dec-02 13:31N 55°57' E 012°37'4 8.6
2017-Dec-02 13:01N 56°01' E 012°38'3 6.9
2017-Dec-02 12:31N 56°04' E 012°36'4 7.4
2017-Dec-02 12:00N 56°07' E 012°31'4 9.0
2017-Dec-02 11:30N 56°09' E 012°24'510.5
2017-Dec-02 11:01N 56°12' E 012°17'50 9.5
2017-Dec-02 05:45N 56°59' E 011°44'3 9.1
2017-Dec-02 05:27N 57°02' E 011°42'4 9.1
2017-Dec-02 05:01N 57°05' E 011°39'4 8.8
2017-Dec-02 04:30N 57°10' E 011°36'5 9.1
2017-Dec-02 04:00N 57°14' E 011°33'5 9.5
2017-Dec-02 03:31N 57°18' E 011°30'5 9.6
2017-Dec-02 03:01N 57°23' E 011°27'5 9.6
2017-Dec-02 02:31N 57°27' E 011°24'5 9.7
2017-Dec-02 02:00N 57°31' E 011°18'5 9.7
2017-Dec-02 01:31N 57°34' E 011°11'510.0
2017-Dec-02 01:01N 57°37' E 011°04'510.1
2017-Dec-02 00:31N 57°41' E 010°57'510.3
2017-Dec-02 00:01N 57°44' E 010°50'5 9.4
2017-Dec-01 23:30N 57°47' E 010°42'5 9.9
2017-Dec-01 23:01N 57°47' E 010°33'7110.2
2017-Dec-01 16:01N 57°50' E 008°19'010.1
2017-Dec-01 16:00N 57°50' E 008°19'5 9.9
2017-Dec-01 15:31N 57°50' E 008°10'5 9.6
2017-Dec-01 15:00N 57°50' E 008°01'5 9.2
2017-Dec-01 14:30N 57°50' E 007°52'5 9.2
2017-Dec-01 14:00N 57°51' E 007°43'5 9.0
2017-Dec-01 13:30N 57°51' E 007°35'4 8.5
2017-Dec-01 13:01N 57°51' E 007°27'5 9.2
2017-Dec-01 12:31N 57°51' E 007°18'5 9.8
2017-Dec-01 12:01N 57°51' E 007°09'5 9.7
2017-Dec-01 11:30N 57°53' E 007°00'510.3
2017-Dec-01 11:00N 57°55' E 006°52'510.7
2017-Dec-01 10:30N 57°57' E 006°43'510.8
2017-Dec-01 10:00N 57°60' E 006°34'510.7
2017-Dec-01 09:30N 58°04' E 006°28'510.5
2017-Dec-01 09:00N 58°09' E 006°23'5 9.7
2017-Dec-01 08:30N 58°13' E 006°19'5 9.4
2017-Dec-01 08:01N 58°17' E 006°15'2 4.9
2017-Dec-01 07:30N 58°20' E 006°16'0 0.0
2017-Dec-01 07:01N 58°20' E 006°16'0 0.0
2017-Dec-01 06:30N 58°20' E 006°16'0 0.0
2017-Dec-01 06:00N 58°20' E 006°16'0 0.0
2017-Dec-01 05:30N 58°20' E 006°16'0 0.0
2017-Dec-01 05:01N 58°20' E 006°16'0 0.0
2017-Dec-01 04:30N 58°20' E 006°16'0 0.0
2017-Dec-01 04:00N 58°20' E 006°16'0 0.0
2017-Dec-01 03:30N 58°20' E 006°16'0 0.0
2017-Dec-01 03:00N 58°20' E 006°16'0 0.0
2017-Dec-01 02:29N 58°20' E 006°16'0 0.0
2017-Dec-01 02:00N 58°20' E 006°16'0 0.0
2017-Dec-01 01:30N 58°20' E 006°16'0 0.0
2017-Dec-01 01:00N 58°20' E 006°16'0 0.0
2017-Dec-01 00:30N 58°20' E 006°16'0 0.0
2017-Dec-01 00:00N 58°20' E 006°16'0 0.0
2017-Nov-30 23:30N 58°20' E 006°16'0 0.0
2017-Nov-30 22:59N 58°20' E 006°16'0 0.0
2017-Nov-30 22:30N 58°20' E 006°16'0 0.0
2017-Nov-30 21:59N 58°20' E 006°16'0 0.0
2017-Nov-30 21:30N 58°20' E 006°16'0 0.0
2017-Nov-30 21:00N 58°20' E 006°16'0 0.0
2017-Nov-30 20:29N 58°20' E 006°16'0 0.0
2017-Nov-30 20:00N 58°20' E 006°16'0 0.0
2017-Nov-30 19:30N 58°20' E 006°16'0 0.0
2017-Nov-30 19:00N 58°20' E 006°16'0 0.0
2017-Nov-30 18:30N 58°20' E 006°16'0 0.0
2017-Nov-30 18:00N 58°20' E 006°16'0 0.0
2017-Nov-30 17:29N 58°20' E 006°16'0 0.0
2017-Nov-30 17:00N 58°20' E 006°16'0 0.0
2017-Nov-30 16:29N 58°20' E 006°16'0 0.0
2017-Nov-30 16:00N 58°20' E 006°16'0 0.0
2017-Nov-30 15:30N 58°20' E 006°16'0 0.0
2017-Nov-30 15:00N 58°20' E 006°16'0 0.0
2017-Nov-30 14:30N 58°20' E 006°16'0 0.0
2017-Nov-30 14:00N 58°20' E 006°16'0 0.0
2017-Nov-30 13:30N 58°20' E 006°16'0 0.0
2017-Nov-30 13:00N 58°20' E 006°16'0 0.0
2017-Nov-30 12:30N 58°20' E 006°16'0 0.0
2017-Nov-30 12:00N 58°20' E 006°16'0 0.0
2017-Nov-30 11:30N 58°20' E 006°16'0 0.0
2017-Nov-30 11:00N 58°20' E 006°16'0 0.0
2017-Nov-30 10:30N 58°20' E 006°16'  
Track history (hours):
 
Tides and Currents Weather Stations Pressure Air Temp Water Temp Dewpoint Dewpoint Depression Visibility Wind Speed Wind Dir Waves Ship Positions

Kersti

Last reported at 2017-Dec-10 10:09 UTC. Time now 2017-Dec-13 15:10 UTC.
Position N 59°32' E 026°33'.

Length 107 m; draft 3.9 m.

Type: Cargo ship. MMSI: 249145000.

Date/timePositionNaut miles runAvg speedWind from/ knotsBaromVisibWave heightAir tempDewpointWater temp
2017-Dec-10 10:09N 59°32' E 026°33'0 0.1
2017-Dec-10 09:57N 59°32' E 026°33'2 4.3
2017-Dec-10 09:26N 59°34' E 026°32'4 9.4
2017-Dec-10 09:00N 59°38' E 026°29'5 9.5
2017-Dec-10 08:31N 59°41' E 026°24'510.6
2017-Dec-10 08:00N 59°44' E 026°15'2610.4
2017-Dec-10 05:31N 59°44' E 025°24'210.5
2017-Dec-10 05:22N 59°44' E 025°21'410.3
2017-Dec-10 05:01N 59°44' E 025°13'5 9.9
2017-Dec-10 04:31N 59°44' E 025°03'510.8
2017-Dec-10 04:00N 59°44' E 024°53'5 9.3
2017-Dec-10 03:31N 59°44' E 024°43'5 9.2
2017-Dec-10 03:00N 59°43' E 024°35'510.8
2017-Dec-10 02:30N 59°40' E 024°25'4 8.0
2017-Dec-10 02:00N 59°38' E 024°19'5 9.7
2017-Dec-10 01:30N 59°36' E 024°10'  
2017-Dec-07 05:51N 55°39' E 018°59'5 7.8
2017-Dec-07 05:12N 55°35' E 019°01'310.1
2017-Dec-07 04:53N 55°32' E 018°60'3 8.1
2017-Dec-07 04:29N 55°28' E 019°01'7 8.6
2017-Dec-07 03:40N 55°21' E 019°03'4 8.9
2017-Dec-07 03:14N 55°18' E 019°05'2 8.6
2017-Dec-07 02:57N 55°16' E 019°07'4 8.9
2017-Dec-07 02:30N 55°12' E 019°09'5 9.2
2017-Dec-07 02:00N 55°07' E 019°11'5 9.0
2017-Dec-07 01:30N 55°03' E 019°13'4 8.9
2017-Dec-07 01:00N 54°59' E 019°15'5 9.2
2017-Dec-07 00:30N 54°54' E 019°18'5 9.1
2017-Dec-07 00:00N 54°50' E 019°20'4 8.6
2017-Dec-06 23:30N 54°48' E 019°26'4 8.9
2017-Dec-06 23:00N 54°46' E 019°33'4 8.9
2017-Dec-06 22:30N 54°44' E 019°40'  
2017-Dec-03 23:43N 54°39' E 019°48'0 0.0
2017-Dec-03 20:34N 54°39' E 019°47'0 1.2
2017-Dec-03 20:19N 54°39' E 019°47'3 7.8
2017-Dec-03 19:59N 54°41' E 019°45'5 8.9
2017-Dec-03 19:28N 54°44' E 019°38'4 9.1
2017-Dec-03 19:00N 54°45' E 019°31'5 9.3
2017-Dec-03 18:30N 54°47' E 019°23'5 9.3
2017-Dec-03 18:00N 54°49' E 019°16'5 9.2
2017-Dec-03 17:31N 54°50' E 019°08'5 9.4
2017-Dec-03 17:01N 54°52' E 019°01'5 9.5
2017-Dec-03 16:31N 54°53' E 018°53'5 9.7
2017-Dec-03 16:01N 54°55' E 018°45'5 9.9
2017-Dec-03 15:30N 54°57' E 018°37'5 9.6
2017-Dec-03 15:00N 54°58' E 018°28'5 9.8
2017-Dec-03 14:28N 54°57' E 018°19'5 9.9
2017-Dec-03 14:00N 54°56' E 018°11'101 9.7
2017-Dec-03 03:37N 54°51' E 015°16'2 9.6
2017-Dec-03 03:26N 54°51' E 015°13'4 9.8
2017-Dec-03 03:01N 54°52' E 015°06'5 9.6
2017-Dec-03 02:31N 54°52' E 014°58'5 9.5
2017-Dec-03 02:01N 54°53' E 014°49'5 9.5
2017-Dec-03 01:31N 54°54' E 014°41'5 9.6
2017-Dec-03 01:01N 54°55' E 014°33'5 9.6
2017-Dec-03 00:31N 54°56' E 014°25'5 9.7
2017-Dec-02 23:57N 54°57' E 014°16'7 9.6
2017-Dec-02 23:15N 54°59' E 014°05'7 9.7
2017-Dec-02 22:33N 55°01' E 013°53'310.0
2017-Dec-02 22:14N 55°02' E 013°48'310.0
2017-Dec-02 21:57N 55°03' E 013°44'21 9.8
2017-Dec-02 19:46N 55°11' E 013°09'3 9.3
2017-Dec-02 19:30N 55°12' E 013°05'5 9.7
2017-Dec-02 19:00N 55°14' E 012°57'5 9.8
2017-Dec-02 18:30N 55°15' E 012°49'5 9.9
2017-Dec-02 18:01N 55°18' E 012°41'4 7.7
2017-Dec-02 17:30N 55°21' E 012°39'5 9.4
2017-Dec-02 17:00N 55°26' E 012°40'5 9.3
2017-Dec-02 16:30N 55°30' E 012°42'4 8.6
2017-Dec-02 16:01N 55°35' E 012°42'4 8.3
2017-Dec-02 15:31N 55°39' E 012°41'5 9.2
2017-Dec-02 15:01N 55°43' E 012°41'5 9.3
2017-Dec-02 14:31N 55°48' E 012°41'5 9.2
2017-Dec-02 14:01N 55°52' E 012°39'5 9.2
2017-Dec-02 13:31N 55°57' E 012°37'4 8.6
2017-Dec-02 13:01N 56°01' E 012°38'3 6.9
2017-Dec-02 12:31N 56°04' E 012°36'4 7.4
2017-Dec-02 12:00N 56°07' E 012°31'4 9.0
2017-Dec-02 11:30N 56°09' E 012°24'510.5
2017-Dec-02 11:01N 56°12' E 012°17'50 9.5
2017-Dec-02 05:45N 56°59' E 011°44'3 9.1
2017-Dec-02 05:27N 57°02' E 011°42'4 9.1
2017-Dec-02 05:01N 57°05' E 011°39'4 8.8
2017-Dec-02 04:30N 57°10' E 011°36'5 9.1
2017-Dec-02 04:00N 57°14' E 011°33'5 9.5
2017-Dec-02 03:31N 57°18' E 011°30'5 9.6
2017-Dec-02 03:01N 57°23' E 011°27'5 9.6
2017-Dec-02 02:31N 57°27' E 011°24'5 9.7
2017-Dec-02 02:00N 57°31' E 011°18'5 9.7
2017-Dec-02 01:31N 57°34' E 011°11'510.0
2017-Dec-02 01:01N 57°37' E 011°04'510.1
2017-Dec-02 00:31N 57°41' E 010°57'510.3
2017-Dec-02 00:01N 57°44' E 010°50'5 9.4
2017-Dec-01 23:30N 57°47' E 010°42'5 9.9
2017-Dec-01 23:01N 57°47' E 010°33'7110.2
2017-Dec-01 16:01N 57°50' E 008°19'010.1
2017-Dec-01 16:00N 57°50' E 008°19'5 9.9
2017-Dec-01 15:31N 57°50' E 008°10'5 9.6
2017-Dec-01 15:00N 57°50' E 008°01'5 9.2
2017-Dec-01 14:30N 57°50' E 007°52'5 9.2
2017-Dec-01 14:00N 57°51' E 007°43'5 9.0
2017-Dec-01 13:30N 57°51' E 007°35'4 8.5
2017-Dec-01 13:01N 57°51' E 007°27'5 9.2
2017-Dec-01 12:31N 57°51' E 007°18'5 9.8
2017-Dec-01 12:01N 57°51' E 007°09'5 9.7
2017-Dec-01 11:30N 57°53' E 007°00'510.3
2017-Dec-01 11:00N 57°55' E 006°52'510.7
2017-Dec-01 10:30N 57°57' E 006°43'510.8
2017-Dec-01 10:00N 57°60' E 006°34'510.7
2017-Dec-01 09:30N 58°04' E 006°28'510.5
2017-Dec-01 09:00N 58°09' E 006°23'5 9.7
2017-Dec-01 08:30N 58°13' E 006°19'5 9.4
2017-Dec-01 08:01N 58°17' E 006°15'2 4.9
2017-Dec-01 07:30N 58°20' E 006°16'0 0.0
2017-Dec-01 07:01N 58°20' E 006°16'0 0.0
2017-Dec-01 06:30N 58°20' E 006°16'0 0.0
2017-Dec-01 06:00N 58°20' E 006°16'0 0.0
2017-Dec-01 05:30N 58°20' E 006°16'0 0.0
2017-Dec-01 05:01N 58°20' E 006°16'0 0.0
2017-Dec-01 04:30N 58°20' E 006°16'0 0.0
2017-Dec-01 04:00N 58°20' E 006°16'0 0.0
2017-Dec-01 03:30N 58°20' E 006°16'0 0.0
2017-Dec-01 03:00N 58°20' E 006°16'0 0.0
2017-Dec-01 02:29N 58°20' E 006°16'0 0.0
2017-Dec-01 02:00N 58°20' E 006°16'0 0.0
2017-Dec-01 01:30N 58°20' E 006°16'0 0.0
2017-Dec-01 01:00N 58°20' E 006°16'0 0.0
2017-Dec-01 00:30N 58°20' E 006°16'0 0.0
2017-Dec-01 00:00N 58°20' E 006°16'0 0.0
2017-Nov-30 23:30N 58°20' E 006°16'0 0.0
2017-Nov-30 22:59N 58°20' E 006°16'0 0.0
2017-Nov-30 22:30N 58°20' E 006°16'0 0.0
2017-Nov-30 21:59N 58°20' E 006°16'0 0.0
2017-Nov-30 21:30N 58°20' E 006°16'0 0.0
2017-Nov-30 21:00N 58°20' E 006°16'0 0.0
2017-Nov-30 20:29N 58°20' E 006°16'0 0.0
2017-Nov-30 20:00N 58°20' E 006°16'0 0.0
2017-Nov-30 19:30N 58°20' E 006°16'0 0.0
2017-Nov-30 19:00N 58°20' E 006°16'0 0.0
2017-Nov-30 18:30N 58°20' E 006°16'0 0.0
2017-Nov-30 18:00N 58°20' E 006°16'0 0.0
2017-Nov-30 17:29N 58°20' E 006°16'0 0.0
2017-Nov-30 17:00N 58°20' E 006°16'0 0.0
2017-Nov-30 16:29N 58°20' E 006°16'0 0.0
2017-Nov-30 16:00N 58°20' E 006°16'0 0.0
2017-Nov-30 15:30N 58°20' E 006°16'0 0.0
2017-Nov-30 15:00N 58°20' E 006°16'0 0.0
2017-Nov-30 14:30N 58°20' E 006°16'0 0.0
2017-Nov-30 14:00N 58°20' E 006°16'0 0.0
2017-Nov-30 13:30N 58°20' E 006°16'0 0.0
2017-Nov-30 13:00N 58°20' E 006°16'0 0.0
2017-Nov-30 12:30N 58°20' E 006°16'0 0.0
2017-Nov-30 12:00N 58°20' E 006°16'0 0.0
2017-Nov-30 11:30N 58°20' E 006°16'0 0.0
2017-Nov-30 11:00N 58°20' E 006°16'0 0.0
2017-Nov-30 10:30N 58°20' E 006°16'  

Dump ship's entire track history